Albany, New York
Traffic Map
Current Weather Conditions
Albany, New York
Broken Clouds
Broken Clouds
18°
Feels Like: 18°
Wind Chill: 18° Ceiling: 8000
Heat Index: 18° Visibility: 10mi
Dew Point: 12° Wind: 6mph
Humidity: 67% Direction: 290° (WNW)
Pressure: 29.96in Gusts: 0mph
Raw Report DataKALB 300251Z 29005KT 10SM BKN080 18/12 A2996 RMK AO2 SLP145 T01780117 51009
Traffic Incident Summary
Active as of:
Severity:
Category:
InformationThere was an issue retrieving the traffic information for this location. Please try a different location or try again shortly.
Advertisements
Track Severe Weather on mobile